sensor_id;sensor_type;location;lat;lon;timestamp;pressure;altitude;pressure_sealevel;temperature;humidity
70103;BME280;57470;50.034;15.256;2023-02-01T00:00:31;99295.06;;;4.52;89.71
70103;BME280;57470;50.034;15.256;2023-02-01T00:02:58;99292.94;;;4.61;89.53
70103;BME280;57470;50.034;15.256;2023-02-01T00:05:23;99292.00;;;4.62;89.80
70103;BME280;57470;50.034;15.256;2023-02-01T00:07:49;99296.13;;;4.48;90.27
70103;BME280;57470;50.034;15.256;2023-02-01T00:10:15;99297.47;;;4.57;89.71
70103;BME280;57470;50.034;15.256;2023-02-01T00:12:40;99281.53;;;4.60;89.30
70103;BME280;57470;50.034;15.256;2023-02-01T00:15:06;99291.22;;;4.60;89.51
70103;BME280;57470;50.034;15.256;2023-02-01T00:17:31;99280.91;;;4.55;89.10
70103;BME280;57470;50.034;15.256;2023-02-01T00:19:57;99279.75;;;4.61;89.40
70103;BME280;57470;50.034;15.256;2023-02-01T00:22:22;99284.25;;;4.59;89.25
70103;BME280;57470;50.034;15.256;2023-02-01T00:24:48;99282.81;;;4.51;89.24
70103;BME280;57470;50.034;15.256;2023-02-01T00:27:13;99284.53;;;4.52;89.07
70103;BME280;57470;50.034;15.256;2023-02-01T00:29:43;99282.81;;;4.51;88.94
70103;BME280;57470;50.034;15.256;2023-02-01T00:32:09;99287.19;;;4.52;89.43
70103;BME280;57470;50.034;15.256;2023-02-01T00:34:35;99288.94;;;4.52;89.48
70103;BME280;57470;50.034;15.256;2023-02-01T00:37:00;99302.19;;;4.50;89.74
70103;BME280;57470;50.034;15.256;2023-02-01T00:39:25;99301.41;;;4.48;89.58
70103;BME280;57470;50.034;15.256;2023-02-01T00:41:51;99302.31;;;4.47;89.51
70103;BME280;57470;50.034;15.256;2023-02-01T00:44:16;99299.50;;;4.52;89.13
70103;BME280;57470;50.034;15.256;2023-02-01T00:46:41;99295.38;;;4.46;89.26
70103;BME280;57470;50.034;15.256;2023-02-01T00:49:07;99302.97;;;4.52;89.26
70103;BME280;57470;50.034;15.256;2023-02-01T00:51:34;99302.19;;;4.50;89.05
70103;BME280;57470;50.034;15.256;2023-02-01T00:53:59;99295.22;;;4.49;88.87
70103;BME280;57470;50.034;15.256;2023-02-01T00:56:25;99291.94;;;4.44;88.64
70103;BME280;57470;50.034;15.256;2023-02-01T00:58:53;99302.47;;;4.44;89.40
70103;BME280;57470;50.034;15.256;2023-02-01T01:01:23;99292.75;;;4.46;89.10
70103;BME280;57470;50.034;15.256;2023-02-01T01:03:57;99304.75;;;4.52;89.28
70103;BME280;57470;50.034;15.256;2023-02-01T01:06:28;99311.50;;;4.39;89.64
70103;BME280;57470;50.034;15.256;2023-02-01T01:08:56;99307.75;;;4.44;89.65
70103;BME280;57470;50.034;15.256;2023-02-01T01:11:28;99310.75;;;4.37;89.84
70103;BME280;57470;50.034;15.256;2023-02-01T01:13:56;99305.13;;;4.44;89.88
70103;BME280;57470;50.034;15.256;2023-02-01T01:16:23;99300.69;;;4.26;90.41
70103;BME280;57470;50.034;15.256;2023-02-01T01:18:48;99308.56;;;4.07;91.22
70103;BME280;57470;50.034;15.256;2023-02-01T01:21:15;99311.28;;;4.25;91.38
70103;BME280;57470;50.034;15.256;2023-02-01T01:23:42;99315.41;;;4.30;92.27
70103;BME280;57470;50.034;15.256;2023-02-01T01:26:09;99324.44;;;4.25;93.89
70103;BME280;57470;50.034;15.256;2023-02-01T01:28:35;99322.38;;;4.31;94.25
70103;BME280;57470;50.034;15.256;2023-02-01T01:31:01;99328.50;;;4.32;94.19
70103;BME280;57470;50.034;15.256;2023-02-01T01:33:26;99315.78;;;4.41;93.65
70103;BME280;57470;50.034;15.256;2023-02-01T01:35:52;99305.81;;;4.48;94.14
70103;BME280;57470;50.034;15.256;2023-02-01T01:38:17;99313.72;;;4.48;93.80
70103;BME280;57470;50.034;15.256;2023-02-01T01:40:47;99319.41;;;4.58;93.51
70103;BME280;57470;50.034;15.256;2023-02-01T01:43:17;99317.19;;;4.48;93.98
70103;BME280;57470;50.034;15.256;2023-02-01T01:45:43;99329.72;;;4.43;93.62
70103;BME280;57470;50.034;15.256;2023-02-01T01:48:29;99322.25;;;4.53;93.13
70103;BME280;57470;50.034;15.256;2023-02-01T01:51:05;99317.41;;;4.44;93.12
70103;BME280;57470;50.034;15.256;2023-02-01T01:53:37;99311.44;;;4.40;92.98
70103;BME280;57470;50.034;15.256;2023-02-01T01:56:03;99309.38;;;4.28;93.35
70103;BME280;57470;50.034;15.256;2023-02-01T01:58:32;99309.16;;;4.33;92.70
70103;BME280;57470;50.034;15.256;2023-02-01T02:00:58;99310.06;;;4.32;93.01
70103;BME280;57470;50.034;15.256;2023-02-01T02:03:30;99308.31;;;4.32;92.83
70103;BME280;57470;50.034;15.256;2023-02-01T02:06:00;99301.47;;;4.28;92.88
70103;BME280;57470;50.034;15.256;2023-02-01T02:08:27;99304.69;;;4.35;92.81
70103;BME280;57470;50.034;15.256;2023-02-01T02:10:53;99308.16;;;4.35;92.41
70103;BME280;57470;50.034;15.256;2023-02-01T02:13:26;99298.44;;;4.37;93.02
70103;BME280;57470;50.034;15.256;2023-02-01T02:16:03;99293.16;;;4.37;92.77
70103;BME280;57470;50.034;15.256;2023-02-01T02:38:22;99303.38;;;4.25;91.72
70103;BME280;57470;50.034;15.256;2023-02-01T02:43:36;99300.69;;;4.26;90.57
70103;BME280;57470;50.034;15.256;2023-02-01T02:46:25;99306.75;;;4.28;89.86
70103;BME280;57470;50.034;15.256;2023-02-01T02:49:26;99296.72;;;4.36;88.66
70103;BME280;57470;50.034;15.256;2023-02-01T02:52:15;99300.63;;;4.28;88.83
70103;BME280;57470;50.034;15.256;2023-02-01T02:55:04;99309.16;;;4.33;88.37
70103;BME280;57470;50.034;15.256;2023-02-01T02:57:40;99312.94;;;4.27;88.40
70103;BME280;57470;50.034;15.256;2023-02-01T03:00:32;99311.84;;;4.31;88.08
70103;BME280;57470;50.034;15.256;2023-02-01T03:03:18;99320.97;;;4.24;87.94
70103;BME280;57470;50.034;15.256;2023-02-01T03:06:03;99319.06;;;4.28;87.51
70103;BME280;57470;50.034;15.256;2023-02-01T03:08:31;99312.00;;;4.28;87.60
70103;BME280;57470;50.034;15.256;2023-02-01T03:11:06;99306.81;;;4.27;87.71
70103;BME280;57470;50.034;15.256;2023-02-01T03:13:55;99305.72;;;4.31;86.94
70103;BME280;57470;50.034;15.256;2023-02-01T03:19:09;99302.19;;;4.32;86.20
70103;BME280;57470;50.034;15.256;2023-02-01T03:21:50;99292.38;;;4.35;86.25
70103;BME280;57470;50.034;15.256;2023-02-01T03:27:13;99293.72;;;4.25;85.09
70103;BME280;57470;50.034;15.256;2023-02-01T03:32:32;99287.03;;;4.18;85.17
70103;BME280;57470;50.034;15.256;2023-02-01T03:35:23;99292.91;;;4.23;84.46
70103;BME280;57470;50.034;15.256;2023-02-01T03:37:53;99292.06;;;4.23;84.82
70103;BME280;57470;50.034;15.256;2023-02-01T03:40:22;99294.13;;;4.16;85.33
70103;BME280;57470;50.034;15.256;2023-02-01T03:42:52;99293.84;;;4.22;85.19
70103;BME280;57470;50.034;15.256;2023-02-01T03:45:27;99291.28;;;4.21;85.31
70103;BME280;57470;50.034;15.256;2023-02-01T03:47:58;99282.47;;;4.22;85.18
70103;BME280;57470;50.034;15.256;2023-02-01T03:50:26;99291.63;;;4.13;84.89
70103;BME280;57470;50.034;15.256;2023-02-01T03:52:59;99298.34;;;4.20;84.74
70103;BME280;57470;50.034;15.256;2023-02-01T03:55:28;99291.72;;;4.11;85.55
70103;BME280;57470;50.034;15.256;2023-02-01T03:58:09;99283.66;;;4.14;85.25
70103;BME280;57470;50.034;15.256;2023-02-01T04:00:36;99292.78;;;4.07;85.30
70103;BME280;57470;50.034;15.256;2023-02-01T04:03:04;99287.78;;;4.01;85.69
70103;BME280;57470;50.034;15.256;2023-02-01T04:05:29;99292.41;;;4.15;85.37
70103;BME280;57470;50.034;15.256;2023-02-01T04:07:55;99296.84;;;4.14;84.67
70103;BME280;57470;50.034;15.256;2023-02-01T04:10:21;99294.06;;;4.18;84.11
70103;BME280;57470;50.034;15.256;2023-02-01T04:12:46;99292.13;;;4.21;84.71
70103;BME280;57470;50.034;15.256;2023-02-01T04:15:12;99288.31;;;4.09;85.03
70103;BME280;57470;50.034;15.256;2023-02-01T04:17:37;99293.75;;;4.05;86.16
70103;BME280;57470;50.034;15.256;2023-02-01T04:20:03;99301.00;;;4.00;86.30
70103;BME280;57470;50.034;15.256;2023-02-01T04:22:30;99291.97;;;4.05;86.38
70103;BME280;57470;50.034;15.256;2023-02-01T04:24:55;99289.75;;;3.96;86.99
70103;BME280;57470;50.034;15.256;2023-02-01T04:27:20;99288.66;;;4.02;87.10
70103;BME280;57470;50.034;15.256;2023-02-01T04:29:46;99295.19;;;3.93;87.09
70103;BME280;57470;50.034;15.256;2023-02-01T04:32:12;99296.31;;;4.06;86.88
70103;BME280;57470;50.034;15.256;2023-02-01T04:34:37;99287.34;;;3.92;86.58
70103;BME280;57470;50.034;15.256;2023-02-01T04:37:03;99297.53;;;3.99;86.36
70103;BME280;57470;50.034;15.256;2023-02-01T04:39:28;99291.28;;;4.02;85.90
70103;BME280;57470;50.034;15.256;2023-02-01T04:41:54;99289.50;;;4.02;85.51
70103;BME280;57470;50.034;15.256;2023-02-01T04:44:19;99289.22;;;4.08;84.96
70103;BME280;57470;50.034;15.256;2023-02-01T04:46:46;99287.78;;;4.01;84.99
70103;BME280;57470;50.034;15.256;2023-02-01T04:49:13;99283.72;;;4.13;84.25
70103;BME280;57470;50.034;15.256;2023-02-01T04:51:39;99290.06;;;4.09;83.97
70103;BME280;57470;50.034;15.256;2023-02-01T04:54:05;99290.22;;;4.06;84.59
70103;BME280;57470;50.034;15.256;2023-02-01T04:56:31;99280.88;;;3.99;84.63
70103;BME280;57470;50.034;15.256;2023-02-01T04:58:56;99284.88;;;4.07;84.56
70103;BME280;57470;50.034;15.256;2023-02-01T05:01:22;99276.53;;;3.98;85.16
70103;BME280;57470;50.034;15.256;2023-02-01T05:03:49;99278.16;;;3.82;86.21
70103;BME280;57470;50.034;15.256;2023-02-01T05:06:14;99273.91;;;3.98;85.48
70103;BME280;57470;50.034;15.256;2023-02-01T05:08:40;99270.03;;;3.86;86.25
70103;BME280;57470;50.034;15.256;2023-02-01T05:11:06;99261.72;;;3.95;85.95
70103;BME280;57470;50.034;15.256;2023-02-01T05:13:31;99265.09;;;3.99;85.74
70103;BME280;57470;50.034;15.256;2023-02-01T05:16:15;99248.44;;;3.98;85.41
70103;BME280;57470;50.034;15.256;2023-02-01T05:18:40;99261.81;;;3.94;85.72
70103;BME280;57470;50.034;15.256;2023-02-01T05:21:06;99251.38;;;3.92;85.99
70103;BME280;57470;50.034;15.256;2023-02-01T05:23:31;99255.75;;;3.73;87.06
70103;BME280;57470;50.034;15.256;2023-02-01T05:26:01;99253.16;;;3.71;87.63
70103;BME280;57470;50.034;15.256;2023-02-01T05:28:28;99251.34;;;3.73;88.17
70103;BME280;57470;50.034;15.256;2023-02-01T05:30:53;99248.28;;;3.83;88.08
70103;BME280;57470;50.034;15.256;2023-02-01T05:33:19;99246.78;;;3.77;88.30
70103;BME280;57470;50.034;15.256;2023-02-01T05:35:44;99254.53;;;3.80;88.34
70103;BME280;57470;50.034;15.256;2023-02-01T05:38:10;99254.31;;;3.66;88.94
70103;BME280;57470;50.034;15.256;2023-02-01T05:40:35;99240.03;;;3.71;89.11
70103;BME280;57470;50.034;15.256;2023-02-01T05:43:00;99242.78;;;3.68;89.42
70103;BME280;57470;50.034;15.256;2023-02-01T05:45:26;99238.31;;;3.70;89.44
70103;BME280;57470;50.034;15.256;2023-02-01T05:47:51;99245.16;;;3.74;89.68
70103;BME280;57470;50.034;15.256;2023-02-01T05:50:17;99246.09;;;3.53;90.43
70103;BME280;57470;50.034;15.256;2023-02-01T05:52:42;99239.22;;;3.69;90.38
70103;BME280;57470;50.034;15.256;2023-02-01T05:55:08;99241.91;;;3.68;90.38
70103;BME280;57470;50.034;15.256;2023-02-01T05:57:33;99239.69;;;3.79;90.08
70103;BME280;57470;50.034;15.256;2023-02-01T05:59:58;99233.78;;;3.74;90.64
70103;BME280;57470;50.034;15.256;2023-02-01T06:02:24;99231.28;;;3.71;90.77
70103;BME280;57470;50.034;15.256;2023-02-01T06:04:50;99232.00;;;3.74;90.52
70103;BME280;57470;50.034;15.256;2023-02-01T06:07:16;99225.38;;;3.66;91.07
70103;BME280;57470;50.034;15.256;2023-02-01T06:09:42;99225.16;;;3.70;91.05
70103;BME280;57470;50.034;15.256;2023-02-01T06:12:07;99214.50;;;3.73;90.43
70103;BME280;57470;50.034;15.256;2023-02-01T06:14:33;99212.81;;;3.72;90.65
70103;BME280;57470;50.034;15.256;2023-02-01T06:16:58;99221.13;;;3.82;90.28
70103;BME280;57470;50.034;15.256;2023-02-01T06:19:23;99217.66;;;3.82;90.40
70103;BME280;57470;50.034;15.256;2023-02-01T06:21:49;99214.34;;;3.76;90.40
70103;BME280;57470;50.034;15.256;2023-02-01T06:24:14;99217.06;;;3.94;90.03
70103;BME280;57470;50.034;15.256;2023-02-01T06:26:40;99212.53;;;3.97;89.89
70103;BME280;57470;50.034;15.256;2023-02-01T06:29:06;99213.81;;;3.89;90.01
70103;BME280;57470;50.034;15.256;2023-02-01T06:31:32;99207.69;;;3.88;89.95
70103;BME280;57470;50.034;15.256;2023-02-01T06:33:58;99211.06;;;3.92;90.02
70103;BME280;57470;50.034;15.256;2023-02-01T06:36:23;99210.03;;;3.75;90.06
70103;BME280;57470;50.034;15.256;2023-02-01T06:38:48;99206.75;;;3.70;90.61
70103;BME280;57470;50.034;15.256;2023-02-01T06:41:14;99203.41;;;3.67;90.65
70103;BME280;57470;50.034;15.256;2023-02-01T06:43:40;99204.00;;;3.73;90.50
70103;BME280;57470;50.034;15.256;2023-02-01T06:46:08;99201.44;;;3.72;90.70
70103;BME280;57470;50.034;15.256;2023-02-01T06:48:35;99212.94;;;3.69;90.33
70103;BME280;57470;50.034;15.256;2023-02-01T06:51:00;99205.41;;;3.81;90.10
70103;BME280;57470;50.034;15.256;2023-02-01T06:53:26;99191.69;;;3.74;90.26
70103;BME280;57470;50.034;15.256;2023-02-01T06:55:57;99206.34;;;3.80;90.12
70103;BME280;57470;50.034;15.256;2023-02-01T06:58:22;99191.41;;;3.80;89.88
70103;BME280;57470;50.034;15.256;2023-02-01T07:00:48;99198.03;;;3.89;89.77
70103;BME280;57470;50.034;15.256;2023-02-01T07:03:13;99195.53;;;3.86;90.10
70103;BME280;57470;50.034;15.256;2023-02-01T07:05:39;99195.19;;;3.93;89.86
70103;BME280;57470;50.034;15.256;2023-02-01T07:08:04;99206.72;;;3.91;90.43
70103;BME280;57470;50.034;15.256;2023-02-01T07:10:29;99199.94;;;3.85;90.31
70103;BME280;57470;50.034;15.256;2023-02-01T07:12:58;99204.44;;;4.02;89.58
70103;BME280;57470;50.034;15.256;2023-02-01T07:15:23;99209.72;;;4.02;89.59
70103;BME280;57470;50.034;15.256;2023-02-01T07:17:49;99209.53;;;4.05;89.46
70103;BME280;57470;50.034;15.256;2023-02-01T07:20:15;99210.19;;;3.91;89.73
70103;BME280;57470;50.034;15.256;2023-02-01T07:22:40;99209.00;;;4.17;89.24
70103;BME280;57470;50.034;15.256;2023-02-01T07:25:06;99199.44;;;4.14;89.14
70103;BME280;57470;50.034;15.256;2023-02-01T07:27:34;99196.88;;;4.13;89.42
70103;BME280;57470;50.034;15.256;2023-02-01T07:29:59;99196.19;;;4.28;88.26
70103;BME280;57470;50.034;15.256;2023-02-01T07:32:27;99197.91;;;4.29;87.84
70103;BME280;57470;50.034;15.256;2023-02-01T07:34:53;99187.38;;;4.29;87.29
70103;BME280;57470;50.034;15.256;2023-02-01T07:37:18;99192.25;;;4.37;86.77
70103;BME280;57470;50.034;15.256;2023-02-01T07:39:43;99186.06;;;4.38;86.47
70103;BME280;57470;50.034;15.256;2023-02-01T07:42:09;99188.19;;;4.30;86.99
70103;BME280;57470;50.034;15.256;2023-02-01T07:44:34;99192.41;;;4.34;87.18
70103;BME280;57470;50.034;15.256;2023-02-01T07:47:00;99192.31;;;4.35;87.50
70103;BME280;57470;50.034;15.256;2023-02-01T07:49:25;99188.69;;;4.38;87.65
70103;BME280;57470;50.034;15.256;2023-02-01T07:51:51;99200.84;;;4.40;87.29
70103;BME280;57470;50.034;15.256;2023-02-01T07:54:16;99193.28;;;4.51;87.86
70103;BME280;57470;50.034;15.256;2023-02-01T07:56:41;99182.91;;;4.48;87.89
70103;BME280;57470;50.034;15.256;2023-02-01T07:59:07;99183.69;;;4.50;87.84
70103;BME280;57470;50.034;15.256;2023-02-01T08:01:33;99179.78;;;4.40;88.80
70103;BME280;57470;50.034;15.256;2023-02-01T08:04:00;99177.09;;;4.42;89.26
70103;BME280;57470;50.034;15.256;2023-02-01T08:06:27;99185.03;;;4.40;90.05
70103;BME280;57470;50.034;15.256;2023-02-01T08:08:53;99172.25;;;4.33;90.85
70103;BME280;57470;50.034;15.256;2023-02-01T08:11:20;99173.13;;;4.14;92.02
70103;BME280;57470;50.034;15.256;2023-02-01T08:13:46;99175.41;;;4.22;92.54
70103;BME280;57470;50.034;15.256;2023-02-01T08:16:13;99173.41;;;4.27;93.21
70103;BME280;57470;50.034;15.256;2023-02-01T08:18:39;99173.47;;;4.26;93.15
70103;BME280;57470;50.034;15.256;2023-02-01T08:21:11;99167.28;;;4.27;92.87
70103;BME280;57470;50.034;15.256;2023-02-01T08:23:38;99162.66;;;4.32;92.87
70103;BME280;57470;50.034;15.256;2023-02-01T08:26:08;99172.31;;;4.31;92.90
70103;BME280;57470;50.034;15.256;2023-02-01T08:28:34;99163.53;;;4.49;92.35
70103;BME280;57470;50.034;15.256;2023-02-01T08:31:04;99173.34;;;4.65;91.62
70103;BME280;57470;50.034;15.256;2023-02-01T08:33:29;99165.09;;;4.53;91.17
70103;BME280;57470;50.034;15.256;2023-02-01T08:35:54;99157.81;;;4.59;91.52
70103;BME280;57470;50.034;15.256;2023-02-01T08:38:20;99156.59;;;4.66;91.10
70103;BME280;57470;50.034;15.256;2023-02-01T08:40:45;99158.22;;;4.68;90.78
70103;BME280;57470;50.034;15.256;2023-02-01T08:43:11;99162.41;;;4.72;90.49
70103;BME280;57470;50.034;15.256;2023-02-01T08:45:37;99158.75;;;4.75;90.29
70103;BME280;57470;50.034;15.256;2023-02-01T08:48:02;99167.00;;;4.86;90.02
70103;BME280;57470;50.034;15.256;2023-02-01T08:50:28;99160.00;;;4.85;90.11
70103;BME280;57470;50.034;15.256;2023-02-01T08:52:53;99164.22;;;4.89;90.28
70103;BME280;57470;50.034;15.256;2023-02-01T08:55:19;99145.44;;;4.95;88.38
70103;BME280;57470;50.034;15.256;2023-02-01T08:57:45;99141.47;;;5.04;88.37
70103;BME280;57470;50.034;15.256;2023-02-01T09:00:13;99144.66;;;5.10;88.11
70103;BME280;57470;50.034;15.256;2023-02-01T09:02:39;99141.09;;;5.11;88.37
70103;BME280;57470;50.034;15.256;2023-02-01T09:05:04;99134.09;;;5.10;88.01
70103;BME280;57470;50.034;15.256;2023-02-01T09:07:30;99130.53;;;5.11;87.75
70103;BME280;57470;50.034;15.256;2023-02-01T09:09:56;99126.91;;;5.14;88.52
70103;BME280;57470;50.034;15.256;2023-02-01T09:12:25;99129.13;;;5.21;88.00
70103;BME280;57470;50.034;15.256;2023-02-01T09:14:50;99128.66;;;5.31;87.57
70103;BME280;57470;50.034;15.256;2023-02-01T09:17:15;99129.44;;;5.33;87.27
70103;BME280;57470;50.034;15.256;2023-02-01T09:19:41;99137.44;;;5.47;86.37
70103;BME280;57470;50.034;15.256;2023-02-01T09:22:06;99131.69;;;5.56;86.17
70103;BME280;57470;50.034;15.256;2023-02-01T09:24:32;99131.44;;;5.45;85.79
70103;BME280;57470;50.034;15.256;2023-02-01T09:26:57;99128.31;;;5.54;86.68
70103;BME280;57470;50.034;15.256;2023-02-01T09:29:24;99129.31;;;5.51;85.94
70103;BME280;57470;50.034;15.256;2023-02-01T09:31:49;99127.75;;;5.47;85.88
70103;BME280;57470;50.034;15.256;2023-02-01T09:34:15;99135.38;;;5.53;86.32
70103;BME280;57470;50.034;15.256;2023-02-01T09:36:40;99129.72;;;5.44;86.24
70103;BME280;57470;50.034;15.256;2023-02-01T09:39:06;99138.13;;;5.35;86.76
70103;BME280;57470;50.034;15.256;2023-02-01T09:44:32;99129.88;;;5.41;88.01
70103;BME280;57470;50.034;15.256;2023-02-01T09:47:02;99132.84;;;5.35;87.42
70103;BME280;57470;50.034;15.256;2023-02-01T09:49:33;99132.50;;;5.41;87.05
70103;BME280;57470;50.034;15.256;2023-02-01T09:52:04;99120.06;;;5.27;87.75
70103;BME280;57470;50.034;15.256;2023-02-01T09:54:47;99121.88;;;5.42;86.81
70103;BME280;57470;50.034;15.256;2023-02-01T09:57:21;99113.28;;;5.39;87.04
70103;BME280;57470;50.034;15.256;2023-02-01T09:59:51;99121.19;;;5.39;88.10
70103;BME280;57470;50.034;15.256;2023-02-01T10:02:25;99117.69;;;5.38;87.80
70103;BME280;57470;50.034;15.256;2023-02-01T10:04:54;99139.28;;;5.29;89.69
70103;BME280;57470;50.034;15.256;2023-02-01T10:10:11;99110.69;;;5.21;89.68
70103;BME280;57470;50.034;15.256;2023-02-01T10:15:36;99114.13;;;5.06;90.13
70103;BME280;57470;50.034;15.256;2023-02-01T10:18:12;99113.00;;;5.10;90.42
70103;BME280;57470;50.034;15.256;2023-02-01T10:25:41;99108.63;;;4.94;92.42
70103;BME280;57470;50.034;15.256;2023-02-01T10:28:15;99098.19;;;4.92;92.46
70103;BME280;57470;50.034;15.256;2023-02-01T10:30:46;99108.88;;;4.89;92.49
70103;BME280;57470;50.034;15.256;2023-02-01T10:35:58;99107.16;;;4.71;94.20
70103;BME280;57470;50.034;15.256;2023-02-01T10:38:29;99097.56;;;4.70;94.68
70103;BME280;57470;50.034;15.256;2023-02-01T10:41:02;99112.59;;;4.85;95.24
70103;BME280;57470;50.034;15.256;2023-02-01T10:43:28;99104.16;;;4.78;95.06
70103;BME280;57470;50.034;15.256;2023-02-01T10:45:54;99092.69;;;4.79;95.75
70103;BME280;57470;50.034;15.256;2023-02-01T10:48:19;99087.03;;;4.70;95.45
70103;BME280;57470;50.034;15.256;2023-02-01T10:50:54;99089.97;;;4.81;95.44
70103;BME280;57470;50.034;15.256;2023-02-01T10:53:41;99087.66;;;4.92;94.45
70103;BME280;57470;50.034;15.256;2023-02-01T10:56:11;99088.72;;;4.88;94.37
70103;BME280;57470;50.034;15.256;2023-02-01T10:58:46;99082.53;;;4.89;92.75
70103;BME280;57470;50.034;15.256;2023-02-01T11:01:21;99093.59;;;4.96;92.24
70103;BME280;57470;50.034;15.256;2023-02-01T11:03:57;99089.25;;;4.95;93.11
70103;BME280;57470;50.034;15.256;2023-02-01T11:06:28;99097.16;;;4.95;93.39
70103;BME280;57470;50.034;15.256;2023-02-01T11:14:15;99107.63;;;4.44;96.80
70103;BME280;57470;50.034;15.256;2023-02-01T11:16:47;99108.16;;;4.34;98.58
70103;BME280;57470;50.034;15.256;2023-02-01T11:19:15;99109.44;;;4.25;100.00
70103;BME280;57470;50.034;15.256;2023-02-01T11:21:42;99112.22;;;4.22;100.00
70103;BME280;57470;50.034;15.256;2023-02-01T11:24:24;99122.88;;;4.02;100.00
70103;BME280;57470;50.034;15.256;2023-02-01T11:26:54;99106.00;;;4.06;100.00
70103;BME280;57470;50.034;15.256;2023-02-01T11:29:21;99107.41;;;4.13;100.00
70103;BME280;57470;50.034;15.256;2023-02-01T11:31:56;99104.22;;;4.06;100.00
70103;BME280;57470;50.034;15.256;2023-02-01T11:34:25;99096.31;;;4.06;100.00
70103;BME280;57470;50.034;15.256;2023-02-01T11:36:54;99106.03;;;4.23;100.00
70103;BME280;57470;50.034;15.256;2023-02-01T11:39:30;99100.28;;;4.15;100.00
70103;BME280;57470;50.034;15.256;2023-02-01T11:42:14;99101.53;;;4.08;100.00
70103;BME280;57470;50.034;15.256;2023-02-01T11:44:44;99094.47;;;4.08;100.00
70103;BME280;57470;50.034;15.256;2023-02-01T11:47:27;99101.03;;;4.00;100.00
70103;BME280;57470;50.034;15.256;2023-02-01T11:49:58;99096.84;;;3.96;100.00
70103;BME280;57470;50.034;15.256;2023-02-01T11:55:42;99089.53;;;4.02;100.00
70103;BME280;57470;50.034;15.256;2023-02-01T12:06:48;99080.66;;;4.39;100.00
70103;BME280;57470;50.034;15.256;2023-02-01T12:09:25;99074.47;;;4.40;100.00
70103;BME280;57470;50.034;15.256;2023-02-01T12:14:55;99077.88;;;4.42;100.00
70103;BME280;57470;50.034;15.256;2023-02-01T12:31:06;99097.00;;;4.29;99.49
70103;BME280;57470;50.034;15.256;2023-02-01T12:42:09;99080.59;;;4.75;97.11
70103;BME280;57470;50.034;15.256;2023-02-01T12:44:43;99075.41;;;4.74;97.53
70103;BME280;57470;50.034;15.256;2023-02-01T12:47:35;99071.84;;;4.92;97.35
70103;BME280;57470;50.034;15.256;2023-02-01T12:50:18;99081.13;;;4.99;95.58
70103;BME280;57470;50.034;15.256;2023-02-01T12:52:49;99069.03;;;4.95;95.11
70103;BME280;57470;50.034;15.256;2023-02-01T12:55:39;99062.25;;;5.07;93.75
70103;BME280;57470;50.034;15.256;2023-02-01T13:00:42;99071.06;;;5.23;93.11
70103;BME280;57470;50.034;15.256;2023-02-01T13:05:49;99061.56;;;5.36;92.38
70103;BME280;57470;50.034;15.256;2023-02-01T13:08:24;99063.34;;;5.36;91.28
70103;BME280;57470;50.034;15.256;2023-02-01T13:11:03;99069.28;;;5.39;92.11
70103;BME280;57470;50.034;15.256;2023-02-01T13:16:44;99073.84;;;5.53;91.01
70103;BME280;57470;50.034;15.256;2023-02-01T13:19:21;99076.06;;;5.60;89.25
70103;BME280;57470;50.034;15.256;2023-02-01T13:22:27;99069.50;;;5.83;89.42
70103;BME280;57470;50.034;15.256;2023-02-01T13:25:05;99068.69;;;5.98;87.22
70103;BME280;57470;50.034;15.256;2023-02-01T13:27:37;99068.91;;;6.25;88.24
70103;BME280;57470;50.034;15.256;2023-02-01T13:30:10;99057.78;;;6.50;87.91
70103;BME280;57470;50.034;15.256;2023-02-01T13:35:26;99074.78;;;6.30;87.98
70103;BME280;57470;50.034;15.256;2023-02-01T13:40:41;99067.28;;;6.23;87.21
70103;BME280;57470;50.034;15.256;2023-02-01T13:43:38;99069.16;;;6.21;89.25
70103;BME280;57470;50.034;15.256;2023-02-01T13:46:09;99074.56;;;6.03;88.34
70103;BME280;57470;50.034;15.256;2023-02-01T13:48:56;99070.69;;;6.09;88.40
70103;BME280;57470;50.034;15.256;2023-02-01T13:51:43;99080.94;;;5.99;88.38
70103;BME280;57470;50.034;15.256;2023-02-01T13:54:43;99073.97;;;5.98;88.85
70103;BME280;57470;50.034;15.256;2023-02-01T14:00:27;99080.41;;;6.09;88.60
70103;BME280;57470;50.034;15.256;2023-02-01T14:09:19;99072.66;;;6.21;89.16
70103;BME280;57470;50.034;15.256;2023-02-01T14:16:41;99071.91;;;6.03;88.30
70103;BME280;57470;50.034;15.256;2023-02-01T14:19:33;99064.69;;;6.07;88.03
70103;BME280;57470;50.034;15.256;2023-02-01T14:21:59;99067.72;;;5.99;88.15
70103;BME280;57470;50.034;15.256;2023-02-01T14:24:33;99068.59;;;6.16;88.21
70103;BME280;57470;50.034;15.256;2023-02-01T14:27:02;99051.28;;;6.26;87.78
70103;BME280;57470;50.034;15.256;2023-02-01T14:29:36;99065.00;;;6.17;88.14
70103;BME280;57470;50.034;15.256;2023-02-01T14:37:35;99049.47;;;6.26;84.72
70103;BME280;57470;50.034;15.256;2023-02-01T14:55:58;99053.75;;;6.13;81.12
70103;BME280;57470;50.034;15.256;2023-02-01T14:58:47;99066.44;;;6.22;80.59
70103;BME280;57470;50.034;15.256;2023-02-01T15:01:26;99051.22;;;5.96;81.28
70103;BME280;57470;50.034;15.256;2023-02-01T15:03:53;99058.66;;;5.89;81.73
70103;BME280;57470;50.034;15.256;2023-02-01T15:06:41;99068.09;;;5.93;81.24
70103;BME280;57470;50.034;15.256;2023-02-01T15:09:16;99066.69;;;5.86;80.65
70103;BME280;57470;50.034;15.256;2023-02-01T15:14:43;99078.47;;;5.81;80.84
70103;BME280;57470;50.034;15.256;2023-02-01T15:17:29;99069.50;;;5.68;82.00
70103;BME280;57470;50.034;15.256;2023-02-01T15:20:19;99078.00;;;5.73;82.00
70103;BME280;57470;50.034;15.256;2023-02-01T15:23:04;99080.31;;;5.63;81.96
70103;BME280;57470;50.034;15.256;2023-02-01T15:25:33;99073.00;;;5.68;81.46
70103;BME280;57470;50.034;15.256;2023-02-01T15:28:00;99078.19;;;5.54;81.83
70103;BME280;57470;50.034;15.256;2023-02-01T15:30:28;99076.84;;;5.62;81.65
70103;BME280;57470;50.034;15.256;2023-02-01T15:33:15;99079.34;;;5.64;81.92
70103;BME280;57470;50.034;15.256;2023-02-01T15:35:43;99074.06;;;5.48;82.46